Ardrishaig, United Kingdom
Current Conditions -  °F | °C
As of 2:50 PM on Thursday 30 Oct 2014 (Local Time) from EGPI Reporting Station
Light Rain Light Rain  
Wind Chill: 57°   Ceiling: 3200
Heat Index: 57°   Visibility: 2.5mi
Dew Point: 55°   Wind: 15mph
Humidity: 94%   Direction: 140°SE
Pressure: 29.8"   Gusts: NA
Location:  56.02°N, 5.45°W
Report Text: EGPI 301450Z 14013KT 4000 -RADZ FEW006 SCT023 BKN032 14/13 Q1009
Loading
Personal Weather Stations






























Interactive Weather Map New forecast layout! Learn more

10-Day Weather Forecast

Advertisements
Track Severe Weather on mobile